To NAV CANADA Home Page Login to a new session Search on AWWS site Feedback and Comments Disclaimer Vers la page française équivalente Tips FAQ What's new on the site To the Forecasts and Observations / NOTAM section To "File a Flight Plan" website Publications and other links Update of the User's profile FIC Telephone Numbers My Weather Data Folder Route Weather Data Regional Weather Data Local Weather Data To the Forecasts and Observations / NOTAM section
Request Generated 04/24/2014 at 18:56:32 UTC . Weather information available at that time is displayed.

METAR/TAF

SLAVE LAKE/AB    (show WxCam)

METAR CYZH 241800Z AUTO 34003KT 9SM OVC012 02/01 A2974 RMK SLP096=
SPECI CYZH 241704Z AUTO VRB02KT 9SM BKN014 OVC027 01/01 A2973 RMK
SLP093=
METAR CYZH 241700Z AUTO 34003KT 290V030 9SM SCT014 OVC027 01/01 A2973
RMK SLP093=
SPECI CYZH 241635Z AUTO 34003KT 9SM SCT012 SCT016 OVC029 01/01 A2973
RMK SLP092=
METAR CYZH 241600Z AUTO 33003KT 9SM OVC012 01/00 A2972 RMK SLP092=

TAF CYZH 241838Z 2419/2507 VRB03KT P6SM OVC012 TEMPO 2419/2422 5SM
-RASN OVC008
FM242200 11008KT P6SM BKN025 TEMPO 2422/2507 P6SM -SHRA OVC015
RMK FCST BASED ON AUTO OBS. NXT FCST BY 250100Z=
Your time UTC time
Weather data provided by Environment Canada and NAV CANADA